Time;durP1;ratioP1;P1;durP2;ratioP2;P2;SDS_P1;SDS_P2;PMS_P1;PMS_P2;Temp;Humidity;BMP_temperature;BMP_pressure;BME280_temperature;BME280_humidity;BME280_pressure;Samples;Min_cycle;Max_cycle;Signal;HPM_P1;HPM_P2
2021/09/21 00:08:17;;;;;;;6.40;4.43;;;14.20;99.90;;;;;;6742317;88;20210;-80
2021/09/21 00:18:17;;;;;;;7.47;4.93;;;14.10;99.90;;;;;;6740389;88;20206;-78
2021/09/21 00:28:18;;;;;;;7.28;4.68;;;14.20;99.90;;;;;;6740364;88;20214;-79
2021/09/21 00:38:22;;;;;;;8.75;4.55;;;14.10;99.90;;;;;;6740440;88;20192;-78
2021/09/21 00:48:22;;;;;;;5.18;3.95;;;14.10;99.90;;;;;;6740714;88;20206;-78
2021/09/21 00:58:23;;;;;;;8.68;4.30;;;14.10;99.90;;;;;;6739830;88;20223;-77
2021/09/21 01:08:27;;;;;;;6.87;4.28;;;14.00;99.90;;;;;;6739749;88;20332;-79
2021/09/21 01:18:28;;;;;;;5.97;3.97;;;14.00;99.90;;;;;;6738184;88;20312;-80
2021/09/21 01:28:29;;;;;;;6.18;4.07;;;13.90;99.90;;;;;;6737473;88;20191;-79
2021/09/21 01:38:29;;;;;;;6.12;3.92;;;13.80;99.90;;;;;;6737253;88;20206;-79
2021/09/21 01:48:30;;;;;;;7.63;4.23;;;13.70;99.90;;;;;;6747678;88;20188;-81
2021/09/21 02:08:34;;;;;;;6.43;4.43;;;13.90;99.90;;;;;;6748109;88;20186;-79
2021/09/21 02:18:34;;;;;;;11.68;4.87;;;13.80;99.90;;;;;;6740290;88;20238;-79
2021/09/21 02:28:35;;;;;;;7.40;4.62;;;13.60;99.90;;;;;;6738818;88;20176;-80
2021/09/21 02:38:37;;;;;;;6.33;4.60;;;13.60;99.90;;;;;;6737268;88;20289;-78
2021/09/21 02:48:37;;;;;;;8.98;4.10;;;13.60;99.90;;;;;;6741405;88;20738;-79
2021/09/21 02:58:39;;;;;;;4.97;3.83;;;13.60;99.90;;;;;;6742719;88;20247;-79
2021/09/21 03:08:40;;;;;;;6.22;4.07;;;13.50;99.90;;;;;;6742000;88;20378;-79
2021/09/21 03:18:40;;;;;;;6.95;3.67;;;13.50;99.90;;;;;;6741967;88;20255;-80
2021/09/21 03:28:41;;;;;;;5.67;3.80;;;13.60;99.90;;;;;;6741183;88;20187;-79
2021/09/21 03:38:42;;;;;;;4.95;3.75;;;13.40;99.90;;;;;;6741414;88;20526;-79
2021/09/21 03:48:43;;;;;;;5.57;3.55;;;13.40;99.90;;;;;;6741529;88;20225;-80
2021/09/21 03:58:44;;;;;;;6.00;3.78;;;13.30;99.90;;;;;;6742414;88;20209;-79
2021/09/21 04:08:44;;;;;;;5.85;3.30;;;13.20;99.90;;;;;;6741900;88;20238;-78
2021/09/21 04:18:45;;;;;;;6.55;3.70;;;13.30;99.90;;;;;;6741542;88;20243;-78
2021/09/21 04:28:46;;;;;;;5.28;3.30;;;13.40;99.90;;;;;;6741367;88;20307;-80
2021/09/21 04:38:47;;;;;;;8.27;3.70;;;13.10;99.90;;;;;;6740071;88;20241;-79
2021/09/21 04:48:48;;;;;;;6.85;3.83;;;12.50;99.90;;;;;;6742907;88;20234;-79
2021/09/21 04:58:48;;;;;;;5.12;2.87;;;12.20;99.90;;;;;;6752402;88;20304;-78
2021/09/21 05:08:49;;;;;;;7.65;3.45;;;12.10;99.90;;;;;;6746432;88;20277;-79
2021/09/21 05:18:49;;;;;;;6.47;3.53;;;11.80;99.90;;;;;;6745838;88;20323;-79
2021/09/21 05:28:50;;;;;;;6.10;3.35;;;11.70;99.90;;;;;;6739429;88;20272;-80
2021/09/21 05:38:50;;;;;;;7.65;3.62;;;11.50;99.90;;;;;;6738645;88;20177;-80
2021/09/21 05:48:53;;;;;;;4.65;3.17;;;11.70;99.90;;;;;;6738964;88;20730;-80
2021/09/21 05:58:54;;;;;;;6.70;3.87;;;11.60;99.90;;;;;;6738395;88;20213;-79
2021/09/21 06:08:55;;;;;;;5.50;3.83;;;11.70;99.90;;;;;;6745610;88;20184;-81
2021/09/21 06:18:56;;;;;;;5.72;3.50;;;11.40;99.90;;;;;;6752600;88;20193;-78
2021/09/21 06:28:56;;;;;;;7.62;3.90;;;11.40;99.90;;;;;;6733829;88;20247;-80
2021/09/21 06:38:57;;;;;;;5.28;2.87;;;11.50;99.90;;;;;;6740643;88;20216;-80
2021/09/21 06:48:57;;;;;;;5.35;2.25;;;11.90;99.90;;;;;;6743464;88;20181;-79
2021/09/21 06:58:58;;;;;;;4.72;2.50;;;12.30;99.90;;;;;;6744299;88;20215;-80
2021/09/21 07:09:00;;;;;;;5.68;2.40;;;13.00;99.90;;;;;;6739155;88;20203;-79
2021/09/21 07:19:00;;;;;;;3.60;2.05;;;13.70;99.90;;;;;;6743006;88;20221;-80
2021/09/21 07:29:01;;;;;;;6.90;2.17;;;14.60;99.90;;;;;;6741718;88;20225;-80
2021/09/21 07:39:02;;;;;;;8.30;2.58;;;15.30;99.90;;;;;;6740450;88;20258;-79
2021/09/21 07:49:03;;;;;;;4.90;2.10;;;15.90;99.90;;;;;;6740517;88;20260;-78
2021/09/21 07:59:05;;;;;;;4.57;2.40;;;16.50;99.90;;;;;;6740042;88;20241;-78
2021/09/21 08:09:05;;;;;;;3.28;1.92;;;17.00;99.90;;;;;;6740259;88;20193;-80
2021/09/21 08:19:06;;;;;;;4.65;2.83;;;17.40;99.90;;;;;;6738675;88;20215;-80
2021/09/21 08:29:07;;;;;;;3.42;1.90;;;18.20;99.90;;;;;;6741367;88;20197;-81
2021/09/21 08:39:07;;;;;;;6.55;2.25;;;19.10;99.10;;;;;;6735699;88;20188;-82
2021/09/21 08:49:08;;;;;;;4.85;2.03;;;20.20;97.10;;;;;;6743291;88;20283;-81
2021/09/21 08:59:12;;;;;;;5.32;1.92;;;20.20;96.20;;;;;;6741748;88;20205;-80
2021/09/21 09:09:20;;;;;;;4.00;1.70;;;20.90;94.70;;;;;;6741504;88;20687;-81
2021/09/21 09:19:27;;;;;;;3.55;2.10;;;21.40;94.00;;;;;;6740582;88;20194;-80
2021/09/21 09:29:28;;;;;;;4.95;1.90;;;21.90;92.10;;;;;;6737862;88;20219;-82
2021/09/21 09:39:30;;;;;;;6.30;2.00;;;21.80;92.40;;;;;;6742179;88;20189;-80
2021/09/21 09:49:40;;;;;;;3.80;1.87;;;21.30;93.80;;;;;;6737310;88;20181;-81
2021/09/21 09:59:41;;;;;;;4.28;1.95;;;22.20;92.40;;;;;;6739586;88;20248;-79
2021/09/21 10:09:43;;;;;;;4.03;2.20;;;23.20;90.90;;;;;;6740308;88;20192;-79
2021/09/21 10:19:43;;;;;;;3.95;2.20;;;21.50;90.90;;;;;;6736112;88;20188;-80
2021/09/21 10:29:44;;;;;;;5.35;2.03;;;22.00;90.70;;;;;;6745378;88;20227;-79
2021/09/21 10:39:44;;;;;;;4.93;2.10;;;22.60;87.10;;;;;;6744365;88;20201;-80
2021/09/21 10:49:45;;;;;;;3.72;1.95;;;21.60;84.70;;;;;;6741967;88;20193;-78
2021/09/21 10:59:55;;;;;;;3.97;1.90;;;23.90;82.70;;;;;;6739217;88;20238;-80
2021/09/21 11:09:56;;;;;;;3.47;2.03;;;25.00;78.60;;;;;;6744909;88;20193;-80
2021/09/21 11:19:57;;;;;;;3.17;2.08;;;25.40;76.10;;;;;;6742508;88;20206;-80
2021/09/21 11:30:08;;;;;;;4.62;2.20;;;23.30;76.40;;;;;;6740727;88;20230;-79
2021/09/21 11:40:09;;;;;;;3.55;2.08;;;23.20;73.50;;;;;;6736301;88;20205;-79
2021/09/21 11:50:22;;;;;;;3.22;1.80;;;23.70;73.40;;;;;;6743866;88;20228;-79
2021/09/21 12:00:28;;;;;;;3.90;2.10;;;24.10;74.60;;;;;;6737991;88;20198;-79
2021/09/21 12:10:29;;;;;;;3.00;1.90;;;24.90;72.50;;;;;;6742215;88;20207;-80
2021/09/21 12:20:32;;;;;;;4.15;2.10;;;23.80;73.80;;;;;;6742284;88;20188;-80
2021/09/21 12:30:42;;;;;;;3.97;2.17;;;23.10;74.30;;;;;;6740788;88;20243;-80
2021/09/21 12:41:03;;;;;;;5.35;2.12;;;23.10;74.90;;;;;;6740384;88;20696;-79
2021/09/21 12:51:05;;;;;;;3.25;1.95;;;22.80;76.20;;;;;;6740621;88;20215;-79
2021/09/21 13:01:08;;;;;;;4.10;2.03;;;22.80;73.90;;;;;;6740847;88;20263;-80
2021/09/21 13:11:09;;;;;;;5.35;2.20;;;22.40;75.90;;;;;;6741905;88;20355;-80
2021/09/21 13:21:10;;;;;;;2.97;1.73;;;23.20;72.80;;;;;;6741439;88;20559;-81
2021/09/21 13:31:11;;;;;;;3.47;1.90;;;23.40;73.70;;;;;;6740321;87;20207;-80
2021/09/21 13:41:11;;;;;;;3.33;1.85;;;24.20;73.10;;;;;;6746569;88;20189;-79
2021/09/21 13:51:12;;;;;;;4.90;2.28;;;24.30;72.40;;;;;;6740438;88;20204;-78
2021/09/21 14:01:12;;;;;;;3.65;2.03;;;24.30;70.60;;;;;;6736312;88;20190;-80
2021/09/21 14:11:13;;;;;;;3.35;2.10;;;24.10;73.20;;;;;;6735132;76;20835;-77
2021/09/21 14:21:14;;;;;;;3.03;2.00;;;23.70;72.30;;;;;;6723933;88;20262;-76
2021/09/21 14:31:15;;;;;;;6.20;2.28;;;23.50;73.00;;;;;;6718368;88;20885;-77
2021/09/21 14:41:16;;;;;;;4.05;1.90;;;22.60;75.50;;;;;;6718228;88;20198;-78
2021/09/21 14:51:17;;;;;;;5.30;1.90;;;21.80;75.80;;;;;;6702948;88;20464;-78
2021/09/21 15:01:17;;;;;;;3.87;2.00;;;21.80;75.80;;;;;;6715550;88;20271;-77
2021/09/21 15:11:19;;;;;;;2.42;1.80;;;21.90;76.10;;;;;;6716643;88;20363;-77
2021/09/21 15:21:19;;;;;;;3.95;2.03;;;21.80;75.80;;;;;;6711906;88;20756;-78
2021/09/21 15:31:20;;;;;;;3.42;2.20;;;21.70;75.50;;;;;;6713384;88;20374;-77
2021/09/21 15:41:20;;;;;;;4.93;2.30;;;21.70;76.10;;;;;;6719073;88;20212;-77
2021/09/21 15:51:21;;;;;;;3.33;2.00;;;21.70;77.50;;;;;;6719325;88;20224;-77
2021/09/21 16:01:21;;;;;;;3.77;2.20;;;21.20;77.70;;;;;;6721503;88;20238;-76
2021/09/21 16:11:22;;;;;;;5.40;2.53;;;20.70;78.30;;;;;;6717297;88;20223;-76
2021/09/21 16:21:23;;;;;;;3.83;1.90;;;20.50;78.90;;;;;;6719857;88;20182;-77
2021/09/21 16:31:24;;;;;;;2.72;1.70;;;20.20;80.00;;;;;;6720924;88;20195;-78
2021/09/21 16:41:25;;;;;;;3.12;2.10;;;19.70;81.10;;;;;;6716920;88;20232;-77
2021/09/21 16:51:26;;;;;;;5.03;2.70;;;19.20;82.70;;;;;;6717717;88;20225;-77
2021/09/21 17:01:27;;;;;;;10.88;6.90;;;19.00;86.00;;;;;;6717807;88;20986;-78
2021/09/21 17:11:27;;;;;;;9.40;5.70;;;18.80;86.90;;;;;;6717705;88;20193;-77
2021/09/21 17:21:33;;;;;;;6.18;3.03;;;18.30;89.80;;;;;;6717764;88;20206;-77
2021/09/21 17:31:34;;;;;;;3.42;2.60;;;17.60;92.40;;;;;;6718307;88;20179;-77
2021/09/21 17:41:47;;;;;;;5.47;3.00;;;17.10;94.10;;;;;;6707550;88;20637;-77
2021/09/21 17:51:47;;;;;;;4.12;2.90;;;16.60;96.70;;;;;;6704322;88;20198;-77
2021/09/21 18:01:48;;;;;;;7.07;3.78;;;16.30;99.00;;;;;;6711292;88;20667;-78
2021/09/21 18:11:49;;;;;;;7.97;3.53;;;15.80;99.90;;;;;;6715664;88;20202;-77
2021/09/21 18:21:55;;;;;;;6.00;3.15;;;15.60;99.90;;;;;;6719006;88;20193;-78
2021/09/21 18:31:56;;;;;;;4.32;2.67;;;15.10;99.90;;;;;;6715162;88;21068;-77
2021/09/21 18:41:56;;;;;;;5.15;2.90;;;15.00;99.90;;;;;;6718821;88;20238;-78
2021/09/21 18:51:57;;;;;;;5.72;3.40;;;14.70;99.90;;;;;;6719309;88;20197;-79
2021/09/21 19:01:59;;;;;;;8.23;3.30;;;14.80;99.90;;;;;;6722042;88;20189;-78
2021/09/21 19:12:00;;;;;;;8.75;4.75;;;14.30;99.90;;;;;;6719012;88;20710;-78
2021/09/21 19:22:00;;;;;;;6.87;3.67;;;14.30;99.90;;;;;;6718578;88;20195;-77
2021/09/21 19:32:01;;;;;;;9.55;4.50;;;13.90;99.90;;;;;;6718536;88;21032;-78
2021/09/21 19:42:02;;;;;;;6.17;4.00;;;13.80;99.90;;;;;;6715028;88;20244;-78
2021/09/21 19:52:04;;;;;;;4.47;3.05;;;13.80;99.90;;;;;;6724338;88;20560;-79
2021/09/21 20:02:05;;;;;;;4.68;3.15;;;13.60;99.90;;;;;;6727484;88;20249;-77
2021/09/21 20:12:06;;;;;;;4.62;3.30;;;13.10;99.90;;;;;;6713296;88;20204;-77
2021/09/21 20:22:08;;;;;;;5.53;3.37;;;13.10;99.90;;;;;;6721874;88;20296;-77
2021/09/21 20:32:10;;;;;;;7.35;3.72;;;12.90;99.90;;;;;;6724620;88;20197;-77
2021/09/21 20:42:12;;;;;;;4.95;3.40;;;12.70;99.90;;;;;;6725158;88;20189;-78
2021/09/21 20:52:13;;;;;;;8.15;3.80;;;12.40;99.90;;;;;;6726563;88;20262;-77
2021/09/21 21:02:14;;;;;;;6.40;4.15;;;12.40;99.90;;;;;;6723887;88;20250;-77
2021/09/21 21:12:14;;;;;;;6.62;3.75;;;12.20;99.90;;;;;;6723631;88;20305;-77
2021/09/21 21:22:15;;;;;;;6.55;3.70;;;12.10;99.90;;;;;;6713995;88;20208;-77
2021/09/21 21:32:16;;;;;;;8.00;4.05;;;12.10;99.90;;;;;;6722689;88;20178;-78
2021/09/21 21:42:16;;;;;;;9.45;4.28;;;12.20;99.90;;;;;;6725676;88;20944;-77
2021/09/21 21:52:17;;;;;;;6.95;4.05;;;12.10;99.90;;;;;;6731856;88;20264;-77
2021/09/21 22:02:18;;;;;;;6.45;3.95;;;12.00;99.90;;;;;;6728653;88;20664;-77
2021/09/21 22:12:18;;;;;;;6.03;3.80;;;11.70;99.90;;;;;;6726117;88;20264;-77
2021/09/21 22:22:19;;;;;;;7.70;3.70;;;11.50;99.90;;;;;;6718250;88;20206;-77
2021/09/21 22:32:19;;;;;;;6.43;3.62;;;11.40;99.90;;;;;;6715484;88;20745;-76
2021/09/21 22:42:20;;;;;;;7.93;3.93;;;11.40;99.90;;;;;;6722828;88;20190;-77
2021/09/21 22:52:21;;;;;;;7.93;4.10;;;11.40;99.90;;;;;;6724246;88;20510;-76
2021/09/21 23:02:21;;;;;;;8.75;3.80;;;11.30;99.90;;;;;;6721127;88;20577;-76
2021/09/21 23:12:22;;;;;;;7.72;4.18;;;11.10;99.90;;;;;;6719050;88;20198;-76
2021/09/21 23:22:22;;;;;;;9.30;4.57;;;10.90;99.90;;;;;;6717027;88;20226;-77
2021/09/21 23:32:23;;;;;;;6.87;4.20;;;10.80;99.90;;;;;;6718834;88;20190;-77
2021/09/21 23:42:23;;;;;;;5.72;4.00;;;10.70;99.90;;;;;;6722166;88;20417;-77
2021/09/21 23:52:25;;;;;;;6.62;3.87;;;10.60;99.90;;;;;;6718756;88;20603;-76
